Terminal Aerodrome Forecast
Issued by NWS

Home | Current Version | Previous Version | Text Only | Print | Product List | Glossary On
Versions: 1 2 3 4 5 6 7 8 9 10 11 12 13 14 15 16 17 18 19
699
FTUS46 KSEW 181326 AAA
TAFOLM
TAF AMD
KOLM 181326Z 1813/1912 VRB03KT P6SM SKC
      TEMPO 1813/1815 1SM BR
     FM181500 22006KT P6SM BKN040 BKN250
     FM182000 22006KT P6SM BKN040 BKN070
     FM190000 30006KT P6SM BKN040 BKN070
     FM190700 VRB03KT P6SM SCT050=

USA.gov is the U.S. government's official web portal to all federal, state and local government web resources and services.